Time;durP1;ratioP1;P1;durP2;ratioP2;P2;SDS_P1;SDS_P2;PMS_P1;PMS_P2;Temp;Humidity;BMP_temperature;BMP_pressure;BME280_temperature;BME280_humidity;BME280_pressure;Samples;Min_cycle;Max_cycle;Signal;HPM_P1;HPM_P2
2021/12/27 00:01:32;;;;;;;10.88;4.65;;;;;;;;;;5038505;28;20140;-79
2021/12/27 00:04:01;;;;;;;11.38;4.10;;;;;;;;;;5056058;28;20124;-75
2021/12/27 00:06:30;;;;;;;15.25;4.55;;;;;;;;;;5038828;28;20052;-82
2021/12/27 00:08:58;;;;;;;15.55;3.90;;;;;;;;;;5056100;28;20128;-80
2021/12/27 00:11:26;;;;;;;13.68;4.10;;;;;;;;;;5055478;28;20048;-80
2021/12/27 00:13:54;;;;;;;7.50;3.53;;;;;;;;;;5055762;28;20045;-79
2021/12/27 00:16:21;;;;;;;15.48;4.13;;;;;;;;;;5055670;28;20041;-76
2021/12/27 00:18:49;;;;;;;12.18;3.70;;;;;;;;;;5056220;28;20041;-81
2021/12/27 00:21:16;;;;;;;17.35;4.50;;;;;;;;;;5055546;28;20120;-76
2021/12/27 00:23:44;;;;;;;13.20;3.88;;;;;;;;;;5021214;28;20404;-79
2021/12/27 00:26:15;;;;;;;10.93;4.00;;;;;;;;;;5056031;28;20089;-82
2021/12/27 00:28:43;;;;;;;12.38;3.83;;;;;;;;;;5055865;28;20041;-81
2021/12/27 00:31:11;;;;;;;13.55;4.70;;;;;;;;;;5037517;28;20040;-79
2021/12/27 00:33:39;;;;;;;13.63;4.03;;;;;;;;;;5055435;28;20124;-81
2021/12/27 00:36:06;;;;;;;13.35;3.80;;;;;;;;;;5037263;28;20154;-74
2021/12/27 00:38:35;;;;;;;13.68;4.50;;;;;;;;;;5055299;28;20377;-79
2021/12/27 00:41:03;;;;;;;10.70;3.28;;;;;;;;;;5055380;28;20037;-76
2021/12/27 00:43:33;;;;;;;10.23;3.70;;;;;;;;;;5055378;28;20407;-82
2021/12/27 00:46:01;;;;;;;14.90;4.00;;;;;;;;;;5055014;28;20120;-81
2021/12/27 00:48:29;;;;;;;8.95;4.20;;;;;;;;;;5054998;28;20444;-80
2021/12/27 00:50:58;;;;;;;9.57;3.95;;;;;;;;;;5054876;28;20119;-74
2021/12/27 00:53:27;;;;;;;11.38;3.42;;;;;;;;;;5055123;28;20032;-76
2021/12/27 00:55:55;;;;;;;16.42;4.90;;;;;;;;;;5055004;28;20037;-81
2021/12/27 00:58:25;;;;;;;12.55;4.45;;;;;;;;;;5037528;28;20119;-82
2021/12/27 01:00:53;;;;;;;14.75;5.38;;;;;;;;;;5054926;28;20464;-82
2021/12/27 01:03:22;;;;;;;17.92;5.60;;;;;;;;;;5055086;28;20040;-76
2021/12/27 01:05:53;;;;;;;13.43;5.45;;;;;;;;;;5037058;28;20045;-81
2021/12/27 01:08:23;;;;;;;11.90;4.85;;;;;;;;;;5037299;28;20044;-80
2021/12/27 01:13:40;;;;;;;17.95;5.65;;;;;;;;;;5054296;28;20068;-74
2021/12/27 01:16:11;;;;;;;26.70;5.20;;;;;;;;;;5037654;28;20045;-76
2021/12/27 01:18:50;;;;;;;10.40;4.28;;;;;;;;;;5055032;28;20400;-74
2021/12/27 01:21:18;;;;;;;13.68;4.85;;;;;;;;;;5054494;28;20060;-76
2021/12/27 01:23:48;;;;;;;12.23;4.43;;;;;;;;;;5054516;28;20087;-79
2021/12/27 01:26:19;;;;;;;15.68;5.28;;;;;;;;;;5054407;28;20040;-80
2021/12/27 01:28:49;;;;;;;9.52;4.20;;;;;;;;;;5054966;28;20041;-82
2021/12/27 01:31:17;;;;;;;11.93;4.45;;;;;;;;;;5054113;28;20049;-75
2021/12/27 01:33:47;;;;;;;11.90;4.20;;;;;;;;;;5054072;28;20045;-80
2021/12/27 01:36:16;;;;;;;14.25;4.22;;;;;;;;;;5036003;28;20048;-74
2021/12/27 01:38:45;;;;;;;14.00;4.07;;;;;;;;;;5036534;28;20044;-81
2021/12/27 01:41:14;;;;;;;13.85;3.88;;;;;;;;;;5054053;28;20037;-76
2021/12/27 01:43:45;;;;;;;12.93;3.92;;;;;;;;;;5053846;28;20053;-76
2021/12/27 01:46:15;;;;;;;14.10;3.88;;;;;;;;;;5054237;28;20119;-75
2021/12/27 01:48:45;;;;;;;13.30;3.30;;;;;;;;;;5036115;28;20129;-82
2021/12/27 01:51:16;;;;;;;8.48;3.60;;;;;;;;;;5036272;28;20127;-75
2021/12/27 01:53:46;;;;;;;10.02;3.53;;;;;;;;;;5053527;28;20044;-76
2021/12/27 01:56:20;;;;;;;13.25;4.20;;;;;;;;;;5054006;28;20037;-74
2021/12/27 01:58:49;;;;;;;16.30;3.45;;;;;;;;;;5053689;28;20075;-76
2021/12/27 02:01:20;;;;;;;13.45;4.43;;;;;;;;;;5035961;28;20033;-82
2021/12/27 02:03:49;;;;;;;14.98;5.10;;;;;;;;;;5053185;28;20044;-82
2021/12/27 02:06:30;;;;;;;13.10;4.15;;;;;;;;;;5036142;28;20072;-75
2021/12/27 02:08:58;;;;;;;18.75;4.57;;;;;;;;;;5053776;28;20041;-74
2021/12/27 02:11:33;;;;;;;9.73;4.30;;;;;;;;;;5053367;28;20045;-76
2021/12/27 02:14:03;;;;;;;9.85;4.38;;;;;;;;;;5053748;28;20048;-75
2021/12/27 02:16:34;;;;;;;10.40;4.97;;;;;;;;;;5035435;28;20055;-75
2021/12/27 02:19:02;;;;;;;12.98;4.88;;;;;;;;;;5035562;28;20389;-79
2021/12/27 02:21:29;;;;;;;10.65;4.00;;;;;;;;;;5053635;28;20037;-80
2021/12/27 02:23:59;;;;;;;10.23;3.58;;;;;;;;;;5053103;28;20411;-76
2021/12/27 02:26:26;;;;;;;8.98;3.95;;;;;;;;;;5053553;28;20037;-80
2021/12/27 02:28:54;;;;;;;13.13;3.25;;;;;;;;;;5053340;28;20036;-75
2021/12/27 02:31:27;;;;;;;13.38;3.40;;;;;;;;;;5053359;28;20037;-82
2021/12/27 02:33:54;;;;;;;10.35;3.67;;;;;;;;;;5053047;28;20041;-76
2021/12/27 02:36:24;;;;;;;9.38;3.20;;;;;;;;;;5052655;28;20045;-82
2021/12/27 02:38:54;;;;;;;14.95;3.22;;;;;;;;;;5036005;28;20037;-74
2021/12/27 02:41:21;;;;;;;8.40;3.22;;;;;;;;;;5053241;28;20047;-76
2021/12/27 02:43:50;;;;;;;11.45;4.63;;;;;;;;;;5053035;28;20049;-82
2021/12/27 02:46:18;;;;;;;10.70;3.50;;;;;;;;;;5053002;28;20049;-80
2021/12/27 02:48:49;;;;;;;12.35;3.58;;;;;;;;;;5035803;28;20551;-75
2021/12/27 02:51:18;;;;;;;13.32;3.67;;;;;;;;;;5035294;28;20044;-79
2021/12/27 02:53:47;;;;;;;10.07;3.20;;;;;;;;;;5035466;28;20041;-80
2021/12/27 02:56:17;;;;;;;11.00;3.42;;;;;;;;;;5035265;28;20447;-75
2021/12/27 02:58:48;;;;;;;10.77;3.70;;;;;;;;;;5035412;28;20073;-81
2021/12/27 03:01:18;;;;;;;13.63;3.45;;;;;;;;;;5052644;28;20052;-82
2021/12/27 03:03:49;;;;;;;13.52;4.28;;;;;;;;;;5053341;28;20095;-76
2021/12/27 03:06:18;;;;;;;15.27;3.53;;;;;;;;;;5053093;28;20068;-75
2021/12/27 03:08:52;;;;;;;11.13;4.10;;;;;;;;;;5053086;28;20119;-74
2021/12/27 03:11:21;;;;;;;8.68;3.28;;;;;;;;;;5052844;28;20045;-80
2021/12/27 03:13:53;;;;;;;12.65;4.35;;;;;;;;;;5052622;28;20129;-75
2021/12/27 03:16:26;;;;;;;14.93;3.55;;;;;;;;;;5056575;28;20570;-82
2021/12/27 03:18:55;;;;;;;18.47;3.90;;;;;;;;;;5022774;28;20373;-82
2021/12/27 03:21:22;;;;;;;12.20;3.90;;;;;;;;;;5056919;28;20037;-80
2021/12/27 03:23:53;;;;;;;15.55;3.67;;;;;;;;;;5056829;28;20048;-74
2021/12/27 03:26:21;;;;;;;13.75;3.92;;;;;;;;;;5057360;28;20056;-75
2021/12/27 03:28:49;;;;;;;11.25;3.45;;;;;;;;;;5056734;28;20041;-75
2021/12/27 03:31:19;;;;;;;16.85;3.80;;;;;;;;;;5038915;28;20048;-75
2021/12/27 03:33:47;;;;;;;8.82;3.38;;;;;;;;;;5056426;28;20045;-79
2021/12/27 03:36:23;;;;;;;14.45;3.90;;;;;;;;;;5056124;28;20067;-79
2021/12/27 03:38:53;;;;;;;11.45;3.95;;;;;;;;;;5056409;28;20136;-82
2021/12/27 03:41:22;;;;;;;18.30;5.88;;;;;;;;;;5056016;28;20081;-75
2021/12/27 03:43:51;;;;;;;15.70;4.68;;;;;;;;;;5056561;28;20051;-75
2021/12/27 03:46:19;;;;;;;14.57;3.60;;;;;;;;;;5056458;28;20045;-81
2021/12/27 03:48:51;;;;;;;13.00;3.92;;;;;;;;;;5037989;28;20497;-76
2021/12/27 03:51:18;;;;;;;10.48;4.20;;;;;;;;;;5056125;28;20119;-76
2021/12/27 03:53:48;;;;;;;10.25;4.05;;;;;;;;;;5055793;28;20041;-75
2021/12/27 03:56:15;;;;;;;12.95;3.97;;;;;;;;;;5056039;28;20493;-75
2021/12/27 04:01:24;;;;;;;8.35;3.95;;;;;;;;;;5055445;28;20124;-82
2021/12/27 04:03:55;;;;;;;12.38;3.83;;;;;;;;;;5056261;28;20037;-80
2021/12/27 04:06:25;;;;;;;14.18;5.70;;;;;;;;;;5055974;28;20047;-80
2021/12/27 04:08:53;;;;;;;7.97;3.85;;;;;;;;;;5037932;28;20069;-79
2021/12/27 04:11:24;;;;;;;13.57;3.90;;;;;;;;;;5055907;28;20431;-76
2021/12/27 04:13:57;;;;;;;13.43;3.58;;;;;;;;;;5055218;28;20049;-81
2021/12/27 04:16:28;;;;;;;12.20;4.10;;;;;;;;;;5055867;28;20404;-76
2021/12/27 04:18:57;;;;;;;12.52;3.95;;;;;;;;;;5038261;28;20051;-79
2021/12/27 04:21:25;;;;;;;15.02;3.85;;;;;;;;;;5055820;28;20037;-79
2021/12/27 04:23:55;;;;;;;11.07;4.18;;;;;;;;;;5055605;28;20051;-75
2021/12/27 04:26:23;;;;;;;10.77;3.78;;;;;;;;;;5055545;28;20116;-75
2021/12/27 04:28:54;;;;;;;9.13;3.55;;;;;;;;;;5054903;28;20132;-74
2021/12/27 04:31:23;;;;;;;17.13;3.92;;;;;;;;;;5055497;28;20041;-79
2021/12/27 04:33:53;;;;;;;11.48;3.65;;;;;;;;;;5055412;28;20052;-75
2021/12/27 04:36:22;;;;;;;10.32;3.72;;;;;;;;;;5055112;28;20052;-75
2021/12/27 04:38:50;;;;;;;12.25;4.20;;;;;;;;;;5037631;28;20045;-75
2021/12/27 04:41:19;;;;;;;13.05;3.78;;;;;;;;;;5037470;28;20397;-81
2021/12/27 04:43:47;;;;;;;8.05;3.40;;;;;;;;;;5037605;28;20052;-75
2021/12/27 04:46:18;;;;;;;13.50;3.85;;;;;;;;;;5038149;28;20047;-82
2021/12/27 04:48:51;;;;;;;9.90;3.88;;;;;;;;;;5055331;28;20037;-79
2021/12/27 04:51:22;;;;;;;14.63;4.30;;;;;;;;;;5055125;28;20092;-82
2021/12/27 04:53:51;;;;;;;9.23;3.42;;;;;;;;;;5037038;28;20053;-81
2021/12/27 04:56:19;;;;;;;10.95;3.90;;;;;;;;;;5055178;28;20037;-75
2021/12/27 04:58:47;;;;;;;11.93;3.63;;;;;;;;;;5037362;28;20404;-75
2021/12/27 05:01:14;;;;;;;11.02;4.15;;;;;;;;;;5054685;28;20392;-74
2021/12/27 05:03:42;;;;;;;10.57;3.90;;;;;;;;;;5055461;28;20045;-82
2021/12/27 05:06:13;;;;;;;9.18;4.03;;;;;;;;;;5037320;28;20443;-74
2021/12/27 05:08:41;;;;;;;21.98;4.63;;;;;;;;;;5055310;28;20396;-82
2021/12/27 05:11:11;;;;;;;9.52;4.60;;;;;;;;;;5054677;28;20488;-74
2021/12/27 05:13:41;;;;;;;13.15;4.60;;;;;;;;;;5054376;28;20048;-82
2021/12/27 05:16:10;;;;;;;12.85;4.57;;;;;;;;;;5020331;28;20084;-74
2021/12/27 05:18:39;;;;;;;9.20;4.35;;;;;;;;;;5054891;28;20048;-74
2021/12/27 05:21:07;;;;;;;16.38;6.10;;;;;;;;;;5054616;28;20045;-79
2021/12/27 05:23:44;;;;;;;17.10;9.60;;;;;;;;;;5054711;28;20060;-80
2021/12/27 05:26:12;;;;;;;18.77;10.00;;;;;;;;;;5037036;28;20052;-75
2021/12/27 05:28:40;;;;;;;15.55;7.00;;;;;;;;;;5036427;28;20064;-74
2021/12/27 05:31:09;;;;;;;17.67;6.65;;;;;;;;;;5054321;28;20041;-80
2021/12/27 05:33:40;;;;;;;13.98;5.60;;;;;;;;;;5054392;28;20068;-82
2021/12/27 05:36:08;;;;;;;16.42;6.55;;;;;;;;;;5054001;28;20049;-80
2021/12/27 05:38:36;;;;;;;14.02;6.00;;;;;;;;;;5053607;28;20465;-75
2021/12/27 05:41:04;;;;;;;13.00;5.63;;;;;;;;;;5054208;28;20033;-76
2021/12/27 05:43:32;;;;;;;14.95;6.10;;;;;;;;;;5054121;28;20423;-75
2021/12/27 05:46:02;;;;;;;18.70;6.18;;;;;;;;;;5053966;28;20049;-81
2021/12/27 05:48:32;;;;;;;20.63;7.40;;;;;;;;;;5053685;28;20045;-81
2021/12/27 05:51:00;;;;;;;19.67;6.80;;;;;;;;;;5054047;28;20129;-80
2021/12/27 05:53:27;;;;;;;14.82;6.82;;;;;;;;;;5035971;28;20106;-80
2021/12/27 05:55:56;;;;;;;14.02;5.18;;;;;;;;;;5035983;28;20487;-81
2021/12/27 05:58:25;;;;;;;16.23;5.70;;;;;;;;;;5054056;28;20037;-76
2021/12/27 06:00:53;;;;;;;15.15;5.65;;;;;;;;;;5048001;28;20125;-74
2021/12/27 06:03:21;;;;;;;16.65;5.63;;;;;;;;;;5033511;28;20045;-82
2021/12/27 06:05:49;;;;;;;20.88;8.02;;;;;;;;;;5015909;28;20044;-80
2021/12/27 06:08:17;;;;;;;14.43;6.60;;;;;;;;;;5033645;28;20063;-79
2021/12/27 06:10:46;;;;;;;13.98;6.13;;;;;;;;;;5033553;28;20503;-82
2021/12/27 06:13:15;;;;;;;15.57;6.05;;;;;;;;;;5032849;28;20133;-75
2021/12/27 06:15:43;;;;;;;12.88;6.30;;;;;;;;;;5033310;28;20493;-75
2021/12/27 06:18:12;;;;;;;18.40;6.30;;;;;;;;;;5033448;28;20045;-75
2021/12/27 06:20:40;;;;;;;10.70;5.70;;;;;;;;;;5033297;28;20037;-74
2021/12/27 06:23:10;;;;;;;17.35;6.60;;;;;;;;;;5032094;28;20038;-75
2021/12/27 06:25:38;;;;;;;11.10;5.63;;;;;;;;;;5032887;28;20072;-79
2021/12/27 06:28:08;;;;;;;13.65;6.07;;;;;;;;;;5033701;28;20112;-80
2021/12/27 06:30:38;;;;;;;13.93;8.48;;;;;;;;;;5033022;28;20045;-82
2021/12/27 06:33:07;;;;;;;28.45;8.80;;;;;;;;;;5033224;28;20390;-76
2021/12/27 06:35:34;;;;;;;16.02;7.93;;;;;;;;;;5031790;28;20342;-80
2021/12/27 06:38:02;;;;;;;14.02;7.18;;;;;;;;;;5031392;28;20049;-81
2021/12/27 06:40:30;;;;;;;15.85;7.82;;;;;;;;;;5032990;28;20125;-75
2021/12/27 06:42:59;;;;;;;21.33;8.85;;;;;;;;;;5032886;28;20048;-81
2021/12/27 06:45:26;;;;;;;15.65;7.90;;;;;;;;;;4982936;28;20077;-75
2021/12/27 06:47:54;;;;;;;18.73;8.82;;;;;;;;;;5015213;28;20460;-75
2021/12/27 06:50:23;;;;;;;25.45;8.82;;;;;;;;;;5031404;28;20073;-80
2021/12/27 06:52:54;;;;;;;20.52;9.55;;;;;;;;;;5032812;28;20517;-74
2021/12/27 06:55:23;;;;;;;18.48;8.63;;;;;;;;;;5032750;28;20049;-74
2021/12/27 06:57:52;;;;;;;21.45;9.18;;;;;;;;;;5032814;28;20045;-82
2021/12/27 07:00:24;;;;;;;14.93;7.32;;;;;;;;;;5014593;28;20038;-76
2021/12/27 07:02:52;;;;;;;14.20;6.40;;;;;;;;;;5014961;28;20152;-80
2021/12/27 07:05:20;;;;;;;14.35;6.32;;;;;;;;;;5032663;28;20046;-80
2021/12/27 07:07:51;;;;;;;19.77;6.05;;;;;;;;;;5031642;28;20041;-79
2021/12/27 07:10:19;;;;;;;14.50;6.00;;;;;;;;;;5031410;28;20041;-80
2021/12/27 07:12:48;;;;;;;13.57;6.38;;;;;;;;;;5032391;28;20096;-80
2021/12/27 07:15:16;;;;;;;14.95;6.03;;;;;;;;;;5032547;28;20041;-80
2021/12/27 07:17:43;;;;;;;12.60;6.40;;;;;;;;;;5031293;28;20053;-82
2021/12/27 07:20:12;;;;;;;19.30;6.65;;;;;;;;;;5032403;28;20045;-80
2021/12/27 07:22:40;;;;;;;16.50;6.80;;;;;;;;;;5032415;28;20048;-75
2021/12/27 07:25:11;;;;;;;16.80;6.75;;;;;;;;;;5032184;28;20117;-75
2021/12/27 07:27:39;;;;;;;19.67;6.82;;;;;;;;;;5032541;28;20080;-81
2021/12/27 07:30:08;;;;;;;19.33;6.43;;;;;;;;;;5032560;28;20038;-75
2021/12/27 07:32:36;;;;;;;17.33;6.35;;;;;;;;;;5031355;28;20397;-82
2021/12/27 07:35:05;;;;;;;14.15;5.85;;;;;;;;;;5032295;28;20046;-76
2021/12/27 07:37:32;;;;;;;14.60;5.47;;;;;;;;;;5032226;28;20133;-75
2021/12/27 07:40:01;;;;;;;14.18;5.60;;;;;;;;;;5032028;28;20042;-82
2021/12/27 07:42:29;;;;;;;16.17;5.50;;;;;;;;;;5032353;28;20456;-82
2021/12/27 07:44:57;;;;;;;12.50;5.63;;;;;;;;;;5014422;28;20050;-76
2021/12/27 07:47:27;;;;;;;14.80;5.95;;;;;;;;;;5031998;28;20124;-82
2021/12/27 07:49:55;;;;;;;16.02;6.25;;;;;;;;;;5032024;28;20045;-75
2021/12/27 07:52:23;;;;;;;17.35;7.50;;;;;;;;;;5032056;28;20053;-80
2021/12/27 07:54:54;;;;;;;16.88;6.82;;;;;;;;;;5014221;28;20577;-83
2021/12/27 07:57:22;;;;;;;18.30;6.30;;;;;;;;;;5032208;28;20045;-75
2021/12/27 07:59:52;;;;;;;15.68;6.10;;;;;;;;;;5032326;28;20045;-80
2021/12/27 08:02:19;;;;;;;14.45;5.07;;;;;;;;;;5043719;28;20511;-83
2021/12/27 08:04:47;;;;;;;12.98;4.32;;;;;;;;;;5018209;28;20068;-83
2021/12/27 08:07:14;;;;;;;16.30;4.88;;;;;;;;;;5034821;28;20041;-80
2021/12/27 08:09:42;;;;;;;15.95;5.35;;;;;;;;;;5035596;28;20100;-82
2021/12/27 08:12:12;;;;;;;10.68;4.03;;;;;;;;;;5035632;28;20045;-77
2021/12/27 08:14:40;;;;;;;16.05;4.38;;;;;;;;;;5017859;28;20050;-75
2021/12/27 08:17:08;;;;;;;11.85;4.40;;;;;;;;;;5035494;28;20038;-82
2021/12/27 08:19:36;;;;;;;13.55;6.35;;;;;;;;;;5035668;28;20044;-75
2021/12/27 08:22:04;;;;;;;16.90;4.65;;;;;;;;;;5035172;28;20041;-80
2021/12/27 08:24:33;;;;;;;8.90;4.03;;;;;;;;;;5017449;28;20048;-82
2021/12/27 08:27:02;;;;;;;13.02;3.38;;;;;;;;;;5035455;28;20045;-82
2021/12/27 08:29:30;;;;;;;10.50;4.00;;;;;;;;;;5035142;28;20045;-80
2021/12/27 08:31:59;;;;;;;8.82;3.60;;;;;;;;;;5018028;28;20409;-77
2021/12/27 08:34:31;;;;;;;7.38;3.50;;;;;;;;;;5017633;28;20052;-75
2021/12/27 08:36:59;;;;;;;12.45;3.95;;;;;;;;;;5034785;28;20041;-83
2021/12/27 08:39:30;;;;;;;10.13;3.67;;;;;;;;;;5035130;28;20049;-82
2021/12/27 08:41:57;;;;;;;12.07;3.78;;;;;;;;;;5034946;28;20048;-75
2021/12/27 08:44:27;;;;;;;8.15;3.15;;;;;;;;;;5034578;28;20409;-75
2021/12/27 08:46:58;;;;;;;11.35;3.40;;;;;;;;;;5035013;28;20120;-75
2021/12/27 08:49:26;;;;;;;7.47;3.25;;;;;;;;;;5035786;28;20042;-79
2021/12/27 08:51:53;;;;;;;7.15;3.28;;;;;;;;;;5037095;28;20489;-83
2021/12/27 08:54:22;;;;;;;5.88;3.50;;;;;;;;;;5034602;28;20120;-75
2021/12/27 08:56:49;;;;;;;7.70;3.40;;;;;;;;;;5033599;28;20151;-80
2021/12/27 08:59:18;;;;;;;5.88;3.20;;;;;;;;;;5017249;28;20508;-75
2021/12/27 09:01:46;;;;;;;6.70;3.05;;;;;;;;;;5034405;28;20485;-75
2021/12/27 09:04:14;;;;;;;10.15;3.30;;;;;;;;;;5034611;28;20065;-76
2021/12/27 09:06:42;;;;;;;7.07;3.60;;;;;;;;;;5034369;28;20574;-75
2021/12/27 09:09:10;;;;;;;8.07;3.28;;;;;;;;;;5000311;28;20041;-83
2021/12/27 09:11:40;;;;;;;10.05;3.30;;;;;;;;;;5016264;28;20037;-76
2021/12/27 09:14:08;;;;;;;10.05;3.25;;;;;;;;;;5033719;28;20144;-83
2021/12/27 09:16:44;;;;;;;8.82;3.10;;;;;;;;;;5016464;28;20059;-83
2021/12/27 09:19:12;;;;;;;8.60;2.95;;;;;;;;;;5034170;28;20041;-82
2021/12/27 09:21:39;;;;;;;9.18;3.10;;;;;;;;;;5033087;28;20065;-80
2021/12/27 09:24:14;;;;;;;5.90;2.97;;;;;;;;;;5034322;28;20489;-80
2021/12/27 09:26:45;;;;;;;8.68;3.17;;;;;;;;;;5034067;28;20046;-74
2021/12/27 09:29:13;;;;;;;6.13;2.90;;;;;;;;;;5034202;28;20547;-83
2021/12/27 09:31:40;;;;;;;5.38;2.85;;;;;;;;;;5016490;28;20045;-82
2021/12/27 09:34:08;;;;;;;8.07;3.00;;;;;;;;;;5034146;28;20072;-75
2021/12/27 09:36:39;;;;;;;5.85;3.33;;;;;;;;;;5033705;28;20124;-79
2021/12/27 09:39:06;;;;;;;10.45;3.22;;;;;;;;;;5033895;28;20133;-83
2021/12/27 09:41:35;;;;;;;9.00;3.20;;;;;;;;;;5033726;28;20520;-80
2021/12/27 09:44:05;;;;;;;8.52;3.00;;;;;;;;;;5033715;28;20422;-80
2021/12/27 09:46:32;;;;;;;8.15;3.15;;;;;;;;;;5033569;28;20045;-76
2021/12/27 09:49:01;;;;;;;7.10;2.80;;;;;;;;;;5033582;28;20041;-77
2021/12/27 09:51:30;;;;;;;9.85;4.18;;;;;;;;;;5033733;28;20055;-79
2021/12/27 09:53:58;;;;;;;8.55;3.80;;;;;;;;;;5015710;28;20045;-75
2021/12/27 09:56:26;;;;;;;5.45;2.55;;;;;;;;;;5016078;28;20045;-79
2021/12/27 09:58:54;;;;;;;7.55;2.97;;;;;;;;;;5032608;28;20045;-83
2021/12/27 10:01:22;;;;;;;7.47;3.10;;;;;;;;;;5033172;28;20034;-76
2021/12/27 10:03:50;;;;;;;7.15;2.90;;;;;;;;;;5033516;28;20041;-75
2021/12/27 10:06:19;;;;;;;5.90;2.60;;;;;;;;;;5032200;28;20132;-75
2021/12/27 10:08:59;;;;;;;7.05;3.17;;;;;;;;;;5033438;28;20041;-80
2021/12/27 10:11:32;;;;;;;8.13;2.60;;;;;;;;;;5033435;28;20049;-84
2021/12/27 10:14:08;;;;;;;7.40;3.08;;;;;;;;;;5033406;28;20282;-77
2021/12/27 10:16:54;;;;;;;9.20;2.83;;;;;;;;;;5033148;28;20068;-80
2021/12/27 10:19:23;;;;;;;8.35;2.83;;;;;;;;;;5033223;28;20045;-77
2021/12/27 10:21:53;;;;;;;4.07;2.30;;;;;;;;;;5033303;28;20038;-75
2021/12/27 10:24:29;;;;;;;4.90;2.42;;;;;;;;;;5032423;28;20065;-80
2021/12/27 10:26:58;;;;;;;5.95;2.45;;;;;;;;;;5031681;28;20065;-75
2021/12/27 10:29:28;;;;;;;8.60;2.78;;;;;;;;;;5015594;28;20060;-80
2021/12/27 10:32:16;;;;;;;5.28;2.45;;;;;;;;;;5015310;28;20041;-75
2021/12/27 10:34:45;;;;;;;5.95;2.30;;;;;;;;;;5015358;28;20049;-79
2021/12/27 10:37:31;;;;;;;5.80;2.10;;;;;;;;;;5032668;28;20056;-79
2021/12/27 10:39:58;;;;;;;5.57;2.45;;;;;;;;;;5032791;28;20073;-80
2021/12/27 10:42:27;;;;;;;6.35;2.67;;;;;;;;;;5120547;22;20048;-84
2021/12/27 10:44:57;;;;;;;10.43;2.70;;;;;;;;;;5031638;28;20455;-77
2021/12/27 10:47:29;;;;;;;9.38;2.47;;;;;;;;;;5033353;28;20455;-80
2021/12/27 10:50:28;;;;;;;7.00;2.50;;;;;;;;;;5032821;28;20041;-80
2021/12/27 10:52:55;;;;;;;5.63;2.17;;;;;;;;;;5026557;28;20452;-75
2021/12/27 10:55:25;;;;;;;4.30;2.22;;;;;;;;;;5032921;28;20492;-76
2021/12/27 10:58:08;;;;;;;5.55;2.47;;;;;;;;;;5032933;28;20055;-75
2021/12/27 11:00:36;;;;;;;8.25;2.70;;;;;;;;;;5015231;28;20049;-75
2021/12/27 11:03:04;;;;;;;9.65;3.10;;;;;;;;;;5015589;28;20038;-75
2021/12/27 11:05:34;;;;;;;7.95;3.60;;;;;;;;;;5033088;28;20052;-77
2021/12/27 11:08:05;;;;;;;21.13;4.20;;;;;;;;;;5032914;28;20037;-83
2021/12/27 11:10:35;;;;;;;12.73;3.20;;;;;;;;;;5032868;28;20060;-77
2021/12/27 11:13:04;;;;;;;13.02;3.33;;;;;;;;;;5032901;28;20045;-74
2021/12/27 11:15:34;;;;;;;11.48;3.60;;;;;;;;;;5033055;28;20124;-82
2021/12/27 11:18:04;;;;;;;13.23;3.22;;;;;;;;;;5033699;28;20045;-83
2021/12/27 11:20:33;;;;;;;8.88;3.13;;;;;;;;;;5015503;28;20045;-79
2021/12/27 11:23:02;;;;;;;14.40;3.97;;;;;;;;;;5033106;28;20105;-77
2021/12/27 11:25:29;;;;;;;13.95;4.00;;;;;;;;;;5032661;28;20120;-82
2021/12/27 11:27:58;;;;;;;11.55;3.90;;;;;;;;;;5032564;28;20045;-75
2021/12/27 11:30:30;;;;;;;10.20;3.85;;;;;;;;;;5032547;28;20069;-77
2021/12/27 11:33:06;;;;;;;11.67;3.70;;;;;;;;;;5032872;28;20050;-77
2021/12/27 11:35:39;;;;;;;10.90;3.88;;;;;;;;;;5033181;28;20571;-74
2021/12/27 11:38:10;;;;;;;16.80;3.47;;;;;;;;;;5035172;28;20465;-79
2021/12/27 11:40:45;;;;;;;12.77;3.22;;;;;;;;;;5037004;28;20045;-77
2021/12/27 11:43:13;;;;;;;14.90;3.28;;;;;;;;;;5018840;28;20156;-83
2021/12/27 11:45:51;;;;;;;11.30;3.50;;;;;;;;;;5019169;28;20057;-74
2021/12/27 11:48:29;;;;;;;15.32;3.70;;;;;;;;;;5020293;28;20057;-79
2021/12/27 11:50:58;;;;;;;7.72;3.00;;;;;;;;;;5035709;28;20128;-83
2021/12/27 11:53:31;;;;;;;11.30;2.80;;;;;;;;;;5036281;28;20532;-79
2021/12/27 11:55:59;;;;;;;14.13;3.22;;;;;;;;;;5035954;28;20061;-83
2021/12/27 11:58:32;;;;;;;7.45;2.47;;;;;;;;;;5036487;28;20045;-82
2021/12/27 12:01:26;;;;;;;10.20;2.80;;;;;;;;;;5036048;28;20499;-75
2021/12/27 12:03:58;;;;;;;10.82;2.97;;;;;;;;;;5035920;28;20489;-79
2021/12/27 12:06:45;;;;;;;10.32;2.47;;;;;;;;;;5036153;28;20112;-75
2021/12/27 12:09:17;;;;;;;10.85;3.03;;;;;;;;;;5036287;28;20045;-82
2021/12/27 12:12:05;;;;;;;7.68;3.00;;;;;;;;;;5035560;28;20073;-77
2021/12/27 12:14:34;;;;;;;10.48;3.00;;;;;;;;;;5035359;28;20116;-79
2021/12/27 12:17:04;;;;;;;9.18;3.08;;;;;;;;;;5035997;28;20361;-83
2021/12/27 12:19:45;;;;;;;8.35;3.05;;;;;;;;;;5035917;28;20041;-83
2021/12/27 12:22:33;;;;;;;6.28;2.60;;;;;;;;;;5035950;28;20124;-83
2021/12/27 12:25:20;;;;;;;10.40;2.97;;;;;;;;;;5035545;28;20499;-75
2021/12/27 12:27:59;;;;;;;10.88;3.17;;;;;;;;;;5018222;28;20100;-74
2021/12/27 12:30:32;;;;;;;8.32;3.33;;;;;;;;;;5035461;28;20099;-77
2021/12/27 12:33:00;;;;;;;9.98;3.10;;;;;;;;;;5035694;28;20042;-75
2021/12/27 12:35:48;;;;;;;12.27;3.28;;;;;;;;;;5035765;28;20447;-79
2021/12/27 12:38:17;;;;;;;7.13;3.22;;;;;;;;;;5017574;28;20475;-75
2021/12/27 12:40:45;;;;;;;9.80;2.75;;;;;;;;;;5035754;28;20041;-78
2021/12/27 12:43:30;;;;;;;12.90;3.05;;;;;;;;;;5035396;28;20451;-78
2021/12/27 12:46:08;;;;;;;8.65;2.80;;;;;;;;;;5035844;28;20068;-83
2021/12/27 12:48:37;;;;;;;12.25;3.25;;;;;;;;;;5017784;28;20120;-77
2021/12/27 12:51:05;;;;;;;10.10;3.13;;;;;;;;;;5035036;28;20030;-76
2021/12/27 12:53:34;;;;;;;8.88;2.35;;;;;;;;;;5035040;28;20037;-77
2021/12/27 12:56:03;;;;;;;12.40;3.05;;;;;;;;;;5034155;28;20052;-80
2021/12/27 12:58:43;;;;;;;7.60;2.85;;;;;;;;;;5035765;28;20050;-83
2021/12/27 13:01:11;;;;;;;6.50;2.50;;;;;;;;;;5037189;28;20049;-80
2021/12/27 13:03:39;;;;;;;8.07;2.80;;;;;;;;;;5035163;28;20037;-78
2021/12/27 13:06:07;;;;;;;5.32;2.47;;;;;;;;;;5035291;28;20038;-75
2021/12/27 13:08:39;;;;;;;7.25;2.63;;;;;;;;;;5034575;28;20046;-75
2021/12/27 13:11:07;;;;;;;7.18;2.50;;;;;;;;;;5035066;28;20045;-81
2021/12/27 13:13:34;;;;;;;8.90;2.97;;;;;;;;;;5017661;28;20042;-80
2021/12/27 13:16:05;;;;;;;8.02;2.40;;;;;;;;;;5035240;28;20053;-80
2021/12/27 13:18:35;;;;;;;7.10;2.45;;;;;;;;;;5017465;28;20104;-79
2021/12/27 13:21:09;;;;;;;9.13;2.70;;;;;;;;;;5034866;28;20071;-77
2021/12/27 13:23:39;;;;;;;10.43;2.95;;;;;;;;;;5034957;28;20469;-82
2021/12/27 13:26:08;;;;;;;7.88;3.22;;;;;;;;;;5017365;28;20417;-80
2021/12/27 13:28:56;;;;;;;9.80;3.53;;;;;;;;;;5017033;28;20464;-77
2021/12/27 13:31:26;;;;;;;14.55;3.78;;;;;;;;;;5035425;28;20045;-77
2021/12/27 13:34:02;;;;;;;9.43;3.50;;;;;;;;;;5034612;28;20069;-83
2021/12/27 13:36:32;;;;;;;9.25;3.33;;;;;;;;;;5034461;28;20116;-79
2021/12/27 13:39:10;;;;;;;7.80;3.08;;;;;;;;;;5017129;28;20044;-79
2021/12/27 13:41:39;;;;;;;8.20;3.53;;;;;;;;;;5034511;28;20447;-80
2021/12/27 13:44:11;;;;;;;9.05;2.88;;;;;;;;;;5017008;28;20049;-74
2021/12/27 13:46:48;;;;;;;6.75;2.80;;;;;;;;;;5034179;28;20046;-83
2021/12/27 13:49:19;;;;;;;6.88;2.65;;;;;;;;;;5016578;28;20489;-82
2021/12/27 13:51:56;;;;;;;8.10;3.05;;;;;;;;;;5033886;28;20069;-80
2021/12/27 13:54:27;;;;;;;11.10;3.25;;;;;;;;;;5034483;28;20611;-80
2021/12/27 13:56:58;;;;;;;10.80;3.33;;;;;;;;;;5034017;28;20047;-82
2021/12/27 13:59:26;;;;;;;9.18;3.60;;;;;;;;;;5033477;28;20487;-79
2021/12/27 14:01:56;;;;;;;16.52;3.78;;;;;;;;;;5016399;28;20440;-80
2021/12/27 14:04:28;;;;;;;7.15;3.75;;;;;;;;;;5034606;28;20124;-80
2021/12/27 14:06:57;;;;;;;11.00;3.60;;;;;;;;;;5033919;28;20044;-79
2021/12/27 14:09:29;;;;;;;14.05;4.10;;;;;;;;;;5033759;28;20140;-74
2021/12/27 14:12:08;;;;;;;15.70;3.75;;;;;;;;;;5033719;28;20041;-80
2021/12/27 14:14:38;;;;;;;8.35;3.78;;;;;;;;;;5033620;28;20116;-75
2021/12/27 14:17:07;;;;;;;6.80;3.42;;;;;;;;;;5033747;28;20046;-74
2021/12/27 14:19:36;;;;;;;17.23;4.47;;;;;;;;;;5033804;28;20072;-77
2021/12/27 14:22:06;;;;;;;9.13;4.38;;;;;;;;;;5034155;28;20041;-82
2021/12/27 14:24:41;;;;;;;10.45;3.75;;;;;;;;;;5033929;28;20041;-76
2021/12/27 14:27:19;;;;;;;9.85;3.47;;;;;;;;;;5015443;28;20369;-75
2021/12/27 14:30:05;;;;;;;12.10;3.80;;;;;;;;;;5033555;28;20045;-77
2021/12/27 14:32:35;;;;;;;13.15;3.85;;;;;;;;;;5033452;28;20045;-77
2021/12/27 14:35:03;;;;;;;9.25;3.45;;;;;;;;;;5032962;28;20041;-83
2021/12/27 14:37:31;;;;;;;14.30;3.60;;;;;;;;;;5033657;28;20041;-82
2021/12/27 14:39:59;;;;;;;12.48;3.30;;;;;;;;;;5033825;28;20082;-75
2021/12/27 14:42:27;;;;;;;7.70;3.55;;;;;;;;;;5033583;28;20041;-75
2021/12/27 14:44:56;;;;;;;9.07;2.83;;;;;;;;;;5033217;28;20436;-76
2021/12/27 14:47:24;;;;;;;9.60;3.10;;;;;;;;;;5015551;28;20037;-75
2021/12/27 14:49:55;;;;;;;6.90;2.45;;;;;;;;;;5033137;28;20037;-80
2021/12/27 14:52:26;;;;;;;6.97;2.83;;;;;;;;;;5033136;28;20428;-79
2021/12/27 14:55:05;;;;;;;9.93;2.95;;;;;;;;;;5016865;28;20493;-75
2021/12/27 14:57:33;;;;;;;9.82;3.20;;;;;;;;;;5033393;28;20046;-81